sensor_id;sensor_type;location;lat;lon;timestamp;P1;durP1;ratioP1;P2;durP2;ratioP2
75191;SDS011;63771;52.580;9.734;2022-11-18T00:01:29;7.18;;;4.97;;
75191;SDS011;63771;52.580;9.734;2022-11-18T00:03:55;6.05;;;5.07;;
75191;SDS011;63771;52.580;9.734;2022-11-18T00:06:21;9.03;;;5.27;;
75191;SDS011;63771;52.580;9.734;2022-11-18T00:08:49;7.78;;;5.57;;
75191;SDS011;63771;52.580;9.734;2022-11-18T00:11:16;9.85;;;6.40;;
75191;SDS011;63771;52.580;9.734;2022-11-18T00:14:02;7.78;;;5.97;;
75191;SDS011;63771;52.580;9.734;2022-11-18T00:16:47;6.88;;;5.70;;
75191;SDS011;63771;52.580;9.734;2022-11-18T00:19:14;7.07;;;5.35;;
75191;SDS011;63771;52.580;9.734;2022-11-18T00:21:39;7.45;;;5.57;;
75191;SDS011;63771;52.580;9.734;2022-11-18T00:24:05;5.38;;;4.90;;
75191;SDS011;63771;52.580;9.734;2022-11-18T00:26:30;5.50;;;4.72;;
75191;SDS011;63771;52.580;9.734;2022-11-18T00:28:56;9.40;;;5.90;;
75191;SDS011;63771;52.580;9.734;2022-11-18T00:31:21;5.80;;;5.03;;
75191;SDS011;63771;52.580;9.734;2022-11-18T00:33:46;6.80;;;5.17;;
75191;SDS011;63771;52.580;9.734;2022-11-18T00:36:12;6.57;;;5.23;;
75191;SDS011;63771;52.580;9.734;2022-11-18T00:38:38;6.32;;;5.13;;
75191;SDS011;63771;52.580;9.734;2022-11-18T00:41:05;8.85;;;5.07;;
75191;SDS011;63771;52.580;9.734;2022-11-18T00:43:32;7.25;;;4.88;;
75191;SDS011;63771;52.580;9.734;2022-11-18T00:45:58;7.63;;;5.18;;
75191;SDS011;63771;52.580;9.734;2022-11-18T00:48:23;6.13;;;5.13;;
75191;SDS011;63771;52.580;9.734;2022-11-18T00:50:49;8.43;;;5.07;;
75191;SDS011;63771;52.580;9.734;2022-11-18T00:53:16;6.07;;;4.88;;
75191;SDS011;63771;52.580;9.734;2022-11-18T00:55:43;6.50;;;5.25;;
75191;SDS011;63771;52.580;9.734;2022-11-18T00:58:09;6.72;;;4.93;;
75191;SDS011;63771;52.580;9.734;2022-11-18T01:00:38;6.30;;;5.18;;
75191;SDS011;63771;52.580;9.734;2022-11-18T01:03:08;8.02;;;4.95;;
75191;SDS011;63771;52.580;9.734;2022-11-18T01:05:33;5.78;;;5.28;;
75191;SDS011;63771;52.580;9.734;2022-11-18T01:07:59;8.67;;;6.23;;
75191;SDS011;63771;52.580;9.734;2022-11-18T01:10:24;6.27;;;4.90;;
75191;SDS011;63771;52.580;9.734;2022-11-18T01:12:49;9.80;;;5.43;;
75191;SDS011;63771;52.580;9.734;2022-11-18T01:15:37;8.35;;;5.03;;
75191;SDS011;63771;52.580;9.734;2022-11-18T01:18:04;5.80;;;4.88;;
75191;SDS011;63771;52.580;9.734;2022-11-18T01:20:30;6.03;;;5.22;;
75191;SDS011;63771;52.580;9.734;2022-11-18T01:22:56;5.53;;;5.03;;
75191;SDS011;63771;52.580;9.734;2022-11-18T01:25:22;7.13;;;5.40;;
75191;SDS011;63771;52.580;9.734;2022-11-18T01:27:47;6.47;;;5.40;;
75191;SDS011;63771;52.580;9.734;2022-11-18T01:30:12;7.70;;;5.13;;
75191;SDS011;63771;52.580;9.734;2022-11-18T01:32:40;7.47;;;4.78;;
75191;SDS011;63771;52.580;9.734;2022-11-18T01:35:06;6.55;;;5.03;;
75191;SDS011;63771;52.580;9.734;2022-11-18T01:37:31;6.47;;;4.65;;
75191;SDS011;63771;52.580;9.734;2022-11-18T01:39:57;6.27;;;5.00;;
75191;SDS011;63771;52.580;9.734;2022-11-18T01:42:22;6.53;;;5.90;;
75191;SDS011;63771;52.580;9.734;2022-11-18T01:47:42;10.65;;;5.57;;
75191;SDS011;63771;52.580;9.734;2022-11-18T01:50:13;8.95;;;5.50;;
75191;SDS011;63771;52.580;9.734;2022-11-18T01:52:39;10.15;;;6.28;;
75191;SDS011;63771;52.580;9.734;2022-11-18T01:55:12;10.07;;;7.00;;
75191;SDS011;63771;52.580;9.734;2022-11-18T01:57:41;7.50;;;5.90;;
75191;SDS011;63771;52.580;9.734;2022-11-18T02:00:11;9.02;;;5.97;;
75191;SDS011;63771;52.580;9.734;2022-11-18T02:02:37;7.20;;;5.53;;
75191;SDS011;63771;52.580;9.734;2022-11-18T02:05:03;6.55;;;5.22;;
75191;SDS011;63771;52.580;9.734;2022-11-18T02:07:31;7.18;;;5.55;;
75191;SDS011;63771;52.580;9.734;2022-11-18T02:10:00;12.90;;;6.97;;
75191;SDS011;63771;52.580;9.734;2022-11-18T02:12:27;10.65;;;6.03;;
75191;SDS011;63771;52.580;9.734;2022-11-18T02:14:53;7.70;;;5.97;;
75191;SDS011;63771;52.580;9.734;2022-11-18T02:17:37;6.65;;;5.40;;
75191;SDS011;63771;52.580;9.734;2022-11-18T02:20:17;8.45;;;5.90;;
75191;SDS011;63771;52.580;9.734;2022-11-18T02:25:40;7.32;;;6.22;;
75191;SDS011;63771;52.580;9.734;2022-11-18T02:34:52;7.90;;;6.18;;
75191;SDS011;63771;52.580;9.734;2022-11-18T02:37:36;5.80;;;5.10;;
75191;SDS011;63771;52.580;9.734;2022-11-18T02:40:19;10.05;;;6.13;;
75191;SDS011;63771;52.580;9.734;2022-11-18T02:42:50;9.80;;;6.40;;
75191;SDS011;63771;52.580;9.734;2022-11-18T02:45:20;9.48;;;6.28;;
75191;SDS011;63771;52.580;9.734;2022-11-18T02:47:47;8.60;;;5.78;;
75191;SDS011;63771;52.580;9.734;2022-11-18T02:50:17;8.25;;;6.20;;
75191;SDS011;63771;52.580;9.734;2022-11-18T02:52:47;9.82;;;6.43;;
75191;SDS011;63771;52.580;9.734;2022-11-18T02:55:18;7.43;;;6.25;;
75191;SDS011;63771;52.580;9.734;2022-11-18T02:57:45;8.15;;;5.90;;
75191;SDS011;63771;52.580;9.734;2022-11-18T03:00:12;7.45;;;5.88;;
75191;SDS011;63771;52.580;9.734;2022-11-18T03:02:41;9.45;;;5.68;;
75191;SDS011;63771;52.580;9.734;2022-11-18T03:05:09;10.70;;;7.78;;
75191;SDS011;63771;52.580;9.734;2022-11-18T03:07:42;10.18;;;7.55;;
75191;SDS011;63771;52.580;9.734;2022-11-18T03:10:13;10.63;;;7.90;;
75191;SDS011;63771;52.580;9.734;2022-11-18T03:21:07;9.90;;;6.43;;
75191;SDS011;63771;52.580;9.734;2022-11-18T03:23:53;12.55;;;7.47;;
75191;SDS011;63771;52.580;9.734;2022-11-18T03:26:29;13.90;;;6.80;;
75191;SDS011;63771;52.580;9.734;2022-11-18T03:32:32;9.18;;;6.72;;
75191;SDS011;63771;52.580;9.734;2022-11-18T03:34:43;10.70;;;7.18;;
75191;SDS011;63771;52.580;9.734;2022-11-18T03:37:12;12.65;;;6.78;;
75191;SDS011;63771;52.580;9.734;2022-11-18T03:39:41;8.80;;;6.40;;
75191;SDS011;63771;52.580;9.734;2022-11-18T03:42:14;11.95;;;6.25;;
75191;SDS011;63771;52.580;9.734;2022-11-18T03:44:47;8.07;;;5.40;;
75191;SDS011;63771;52.580;9.734;2022-11-18T03:47:19;9.55;;;7.05;;
75191;SDS011;63771;52.580;9.734;2022-11-18T03:49:51;8.55;;;5.97;;
75191;SDS011;63771;52.580;9.734;2022-11-18T03:52:29;13.27;;;7.45;;
75191;SDS011;63771;52.580;9.734;2022-11-18T03:55:00;11.07;;;7.32;;
75191;SDS011;63771;52.580;9.734;2022-11-18T03:58:14;11.95;;;7.30;;
75191;SDS011;63771;52.580;9.734;2022-11-18T04:00:31;11.55;;;7.28;;
75191;SDS011;63771;52.580;9.734;2022-11-18T04:03:01;9.73;;;7.40;;
75191;SDS011;63771;52.580;9.734;2022-11-18T04:05:28;11.82;;;8.32;;
75191;SDS011;63771;52.580;9.734;2022-11-18T04:07:58;10.15;;;7.03;;
75191;SDS011;63771;52.580;9.734;2022-11-18T04:10:28;10.88;;;7.15;;
75191;SDS011;63771;52.580;9.734;2022-11-18T04:15:31;11.25;;;6.97;;
75191;SDS011;63771;52.580;9.734;2022-11-18T04:20:25;11.83;;;6.70;;
75191;SDS011;63771;52.580;9.734;2022-11-18T04:22:51;12.07;;;7.43;;
75191;SDS011;63771;52.580;9.734;2022-11-18T04:25:16;12.77;;;8.97;;
75191;SDS011;63771;52.580;9.734;2022-11-18T04:27:41;10.60;;;7.93;;
75191;SDS011;63771;52.580;9.734;2022-11-18T04:30:07;11.15;;;7.35;;
75191;SDS011;63771;52.580;9.734;2022-11-18T04:32:33;14.77;;;8.32;;
75191;SDS011;63771;52.580;9.734;2022-11-18T04:34:58;11.13;;;7.35;;
75191;SDS011;63771;52.580;9.734;2022-11-18T04:37:24;12.73;;;8.17;;
75191;SDS011;63771;52.580;9.734;2022-11-18T04:39:49;10.68;;;6.78;;
75191;SDS011;63771;52.580;9.734;2022-11-18T04:42:15;12.93;;;8.25;;
75191;SDS011;63771;52.580;9.734;2022-11-18T04:44:40;9.32;;;7.65;;
75191;SDS011;63771;52.580;9.734;2022-11-18T04:47:06;12.40;;;8.53;;
75191;SDS011;63771;52.580;9.734;2022-11-18T04:49:31;9.60;;;7.50;;
75191;SDS011;63771;52.580;9.734;2022-11-18T04:51:58;13.05;;;7.93;;
75191;SDS011;63771;52.580;9.734;2022-11-18T04:54:23;10.52;;;7.75;;
75191;SDS011;63771;52.580;9.734;2022-11-18T04:56:49;13.80;;;9.13;;
75191;SDS011;63771;52.580;9.734;2022-11-18T04:59:16;12.17;;;8.47;;
75191;SDS011;63771;52.580;9.734;2022-11-18T05:01:44;13.10;;;9.07;;
75191;SDS011;63771;52.580;9.734;2022-11-18T05:04:13;17.17;;;9.43;;
75191;SDS011;63771;52.580;9.734;2022-11-18T05:06:40;16.98;;;9.63;;
75191;SDS011;63771;52.580;9.734;2022-11-18T05:09:07;16.38;;;9.07;;
75191;SDS011;63771;52.580;9.734;2022-11-18T05:11:32;13.40;;;8.07;;
75191;SDS011;63771;52.580;9.734;2022-11-18T05:14:16;15.52;;;8.23;;
75191;SDS011;63771;52.580;9.734;2022-11-18T05:16:41;13.07;;;9.13;;
75191;SDS011;63771;52.580;9.734;2022-11-18T05:19:07;11.83;;;7.50;;
75191;SDS011;63771;52.580;9.734;2022-11-18T05:21:32;15.30;;;8.95;;
75191;SDS011;63771;52.580;9.734;2022-11-18T05:23:58;12.65;;;9.00;;
75191;SDS011;63771;52.580;9.734;2022-11-18T05:26:24;14.20;;;9.10;;
75191;SDS011;63771;52.580;9.734;2022-11-18T05:28:50;16.75;;;10.18;;
75191;SDS011;63771;52.580;9.734;2022-11-18T05:31:16;15.45;;;9.30;;
75191;SDS011;63771;52.580;9.734;2022-11-18T05:33:41;17.02;;;8.70;;
75191;SDS011;63771;52.580;9.734;2022-11-18T05:36:11;19.15;;;9.05;;
75191;SDS011;63771;52.580;9.734;2022-11-18T05:38:39;16.75;;;9.80;;
75191;SDS011;63771;52.580;9.734;2022-11-18T05:41:05;17.77;;;9.93;;
75191;SDS011;63771;52.580;9.734;2022-11-18T05:43:31;15.77;;;9.68;;
75191;SDS011;63771;52.580;9.734;2022-11-18T05:45:57;15.90;;;8.95;;
75191;SDS011;63771;52.580;9.734;2022-11-18T05:48:22;17.45;;;10.63;;
75191;SDS011;63771;52.580;9.734;2022-11-18T05:50:48;17.55;;;10.35;;
75191;SDS011;63771;52.580;9.734;2022-11-18T05:53:16;15.60;;;9.63;;
75191;SDS011;63771;52.580;9.734;2022-11-18T05:55:47;19.88;;;10.15;;
75191;SDS011;63771;52.580;9.734;2022-11-18T05:58:18;16.75;;;10.25;;
75191;SDS011;63771;52.580;9.734;2022-11-18T06:00:43;14.73;;;9.30;;
75191;SDS011;63771;52.580;9.734;2022-11-18T06:03:15;17.90;;;12.23;;
75191;SDS011;63771;52.580;9.734;2022-11-18T06:05:44;20.92;;;11.48;;
75191;SDS011;63771;52.580;9.734;2022-11-18T06:08:09;16.95;;;10.30;;
75191;SDS011;63771;52.580;9.734;2022-11-18T06:10:36;17.58;;;9.60;;
75191;SDS011;63771;52.580;9.734;2022-11-18T06:13:04;18.85;;;10.25;;
75191;SDS011;63771;52.580;9.734;2022-11-18T06:15:34;16.33;;;8.90;;
75191;SDS011;63771;52.580;9.734;2022-11-18T06:18:07;19.20;;;10.35;;
75191;SDS011;63771;52.580;9.734;2022-11-18T06:20:40;14.10;;;9.32;;
75191;SDS011;63771;52.580;9.734;2022-11-18T06:23:06;17.25;;;10.10;;
75191;SDS011;63771;52.580;9.734;2022-11-18T06:25:31;17.45;;;9.80;;
75191;SDS011;63771;52.580;9.734;2022-11-18T06:27:58;19.15;;;11.13;;
75191;SDS011;63771;52.580;9.734;2022-11-18T06:32:51;13.30;;;8.20;;
75191;SDS011;63771;52.580;9.734;2022-11-18T06:35:17;17.63;;;9.98;;
75191;SDS011;63771;52.580;9.734;2022-11-18T06:37:42;19.50;;;10.38;;
75191;SDS011;63771;52.580;9.734;2022-11-18T06:40:08;15.73;;;10.57;;
75191;SDS011;63771;52.580;9.734;2022-11-18T06:42:33;15.90;;;8.68;;
75191;SDS011;63771;52.580;9.734;2022-11-18T06:45:17;16.85;;;10.85;;
75191;SDS011;63771;52.580;9.734;2022-11-18T06:47:43;17.88;;;11.00;;
75191;SDS011;63771;52.580;9.734;2022-11-18T06:50:08;19.03;;;11.03;;
75191;SDS011;63771;52.580;9.734;2022-11-18T06:52:33;22.45;;;10.20;;
75191;SDS011;63771;52.580;9.734;2022-11-18T06:54:59;16.67;;;9.93;;
75191;SDS011;63771;52.580;9.734;2022-11-18T06:57:24;19.17;;;10.33;;
75191;SDS011;63771;52.580;9.734;2022-11-18T06:59:49;18.53;;;11.10;;
75191;SDS011;63771;52.580;9.734;2022-11-18T07:02:15;16.52;;;10.98;;
75191;SDS011;63771;52.580;9.734;2022-11-18T07:04:42;15.95;;;9.90;;
75191;SDS011;63771;52.580;9.734;2022-11-18T07:07:08;17.05;;;10.50;;
75191;SDS011;63771;52.580;9.734;2022-11-18T07:09:34;17.35;;;9.82;;
75191;SDS011;63771;52.580;9.734;2022-11-18T07:12:00;18.55;;;10.23;;
75191;SDS011;63771;52.580;9.734;2022-11-18T07:14:25;15.70;;;10.13;;
75191;SDS011;63771;52.580;9.734;2022-11-18T07:16:51;21.23;;;11.05;;
75191;SDS011;63771;52.580;9.734;2022-11-18T07:19:16;16.00;;;9.67;;
75191;SDS011;63771;52.580;9.734;2022-11-18T07:21:41;17.52;;;9.82;;
75191;SDS011;63771;52.580;9.734;2022-11-18T07:24:07;19.85;;;11.15;;
75191;SDS011;63771;52.580;9.734;2022-11-18T07:26:35;18.90;;;11.75;;
75191;SDS011;63771;52.580;9.734;2022-11-18T07:29:01;17.17;;;10.38;;
75191;SDS011;63771;52.580;9.734;2022-11-18T07:31:26;20.55;;;11.93;;
75191;SDS011;63771;52.580;9.734;2022-11-18T07:33:52;20.80;;;11.20;;
75191;SDS011;63771;52.580;9.734;2022-11-18T07:36:24;21.00;;;11.65;;
75191;SDS011;63771;52.580;9.734;2022-11-18T07:38:51;18.15;;;11.10;;
75191;SDS011;63771;52.580;9.734;2022-11-18T07:41:20;19.80;;;11.07;;
75191;SDS011;63771;52.580;9.734;2022-11-18T07:43:48;17.88;;;11.07;;
75191;SDS011;63771;52.580;9.734;2022-11-18T07:46:21;19.40;;;10.82;;
75191;SDS011;63771;52.580;9.734;2022-11-18T07:48:49;19.70;;;11.93;;
75191;SDS011;63771;52.580;9.734;2022-11-18T07:51:17;21.80;;;11.77;;
75191;SDS011;63771;52.580;9.734;2022-11-18T07:53:44;23.52;;;12.52;;
75191;SDS011;63771;52.580;9.734;2022-11-18T07:56:11;18.33;;;11.00;;
75191;SDS011;63771;52.580;9.734;2022-11-18T07:58:37;16.38;;;11.35;;
75191;SDS011;63771;52.580;9.734;2022-11-18T08:01:07;20.95;;;11.10;;
75191;SDS011;63771;52.580;9.734;2022-11-18T08:03:33;19.88;;;11.27;;
75191;SDS011;63771;52.580;9.734;2022-11-18T08:05:59;20.63;;;11.63;;
75191;SDS011;63771;52.580;9.734;2022-11-18T08:08:25;22.45;;;11.95;;
75191;SDS011;63771;52.580;9.734;2022-11-18T08:10:53;16.83;;;9.40;;
75191;SDS011;63771;52.580;9.734;2022-11-18T08:13:20;24.70;;;12.23;;
75191;SDS011;63771;52.580;9.734;2022-11-18T08:15:45;21.60;;;11.47;;
75191;SDS011;63771;52.580;9.734;2022-11-18T08:18:10;18.53;;;10.03;;
75191;SDS011;63771;52.580;9.734;2022-11-18T08:20:36;22.40;;;11.20;;
75191;SDS011;63771;52.580;9.734;2022-11-18T08:23:01;22.73;;;10.40;;
75191;SDS011;63771;52.580;9.734;2022-11-18T08:25:26;21.50;;;11.93;;
75191;SDS011;63771;52.580;9.734;2022-11-18T08:27:52;20.40;;;11.87;;
75191;SDS011;63771;52.580;9.734;2022-11-18T08:30:17;20.30;;;10.57;;
75191;SDS011;63771;52.580;9.734;2022-11-18T08:32:42;27.77;;;13.25;;
75191;SDS011;63771;52.580;9.734;2022-11-18T08:35:08;21.90;;;11.13;;
75191;SDS011;63771;52.580;9.734;2022-11-18T08:37:34;21.77;;;11.10;;
75191;SDS011;63771;52.580;9.734;2022-11-18T08:39:59;19.73;;;11.10;;
75191;SDS011;63771;52.580;9.734;2022-11-18T08:42:24;21.00;;;12.17;;
75191;SDS011;63771;52.580;9.734;2022-11-18T08:44:50;23.37;;;11.63;;
75191;SDS011;63771;52.580;9.734;2022-11-18T08:47:15;21.43;;;11.57;;
75191;SDS011;63771;52.580;9.734;2022-11-18T08:49:40;20.90;;;12.27;;
75191;SDS011;63771;52.580;9.734;2022-11-18T08:52:07;24.50;;;12.30;;
75191;SDS011;63771;52.580;9.734;2022-11-18T08:54:32;20.08;;;12.07;;
75191;SDS011;63771;52.580;9.734;2022-11-18T08:56:58;19.17;;;11.45;;
75191;SDS011;63771;52.580;9.734;2022-11-18T08:59:23;18.55;;;11.50;;
75191;SDS011;63771;52.580;9.734;2022-11-18T09:01:48;19.13;;;11.30;;
75191;SDS011;63771;52.580;9.734;2022-11-18T09:04:14;19.83;;;9.40;;
75191;SDS011;63771;52.580;9.734;2022-11-18T09:06:39;18.43;;;10.23;;
75191;SDS011;63771;52.580;9.734;2022-11-18T09:09:05;16.80;;;9.63;;
75191;SDS011;63771;52.580;9.734;2022-11-18T09:11:31;17.88;;;10.05;;
75191;SDS011;63771;52.580;9.734;2022-11-18T09:13:58;18.42;;;10.48;;
75191;SDS011;63771;52.580;9.734;2022-11-18T09:16:24;15.55;;;10.15;;
75191;SDS011;63771;52.580;9.734;2022-11-18T09:18:51;17.13;;;9.95;;
75191;SDS011;63771;52.580;9.734;2022-11-18T09:21:17;15.43;;;8.73;;
75191;SDS011;63771;52.580;9.734;2022-11-18T09:23:43;13.20;;;8.75;;
75191;SDS011;63771;52.580;9.734;2022-11-18T09:26:10;13.73;;;8.95;;
75191;SDS011;63771;52.580;9.734;2022-11-18T09:28:37;16.52;;;9.57;;
75191;SDS011;63771;52.580;9.734;2022-11-18T09:31:03;14.52;;;8.70;;
75191;SDS011;63771;52.580;9.734;2022-11-18T09:33:29;17.33;;;9.85;;
75191;SDS011;63771;52.580;9.734;2022-11-18T09:35:55;17.20;;;10.73;;
75191;SDS011;63771;52.580;9.734;2022-11-18T09:38:20;17.77;;;9.85;;
75191;SDS011;63771;52.580;9.734;2022-11-18T09:46:35;14.98;;;9.20;;
75191;SDS011;63771;52.580;9.734;2022-11-18T09:49:37;17.30;;;10.93;;
75191;SDS011;63771;52.580;9.734;2022-11-18T09:52:09;15.38;;;9.63;;
75191;SDS011;63771;52.580;9.734;2022-11-18T09:54:40;15.77;;;9.15;;
75191;SDS011;63771;52.580;9.734;2022-11-18T09:57:13;18.25;;;10.50;;
75191;SDS011;63771;52.580;9.734;2022-11-18T09:59:41;16.65;;;11.90;;
75191;SDS011;63771;52.580;9.734;2022-11-18T10:02:25;20.25;;;10.68;;
75191;SDS011;63771;52.580;9.734;2022-11-18T10:05:15;20.83;;;10.68;;
75191;SDS011;63771;52.580;9.734;2022-11-18T10:08:08;20.38;;;11.85;;
75191;SDS011;63771;52.580;9.734;2022-11-18T10:10:40;17.23;;;9.65;;
75191;SDS011;63771;52.580;9.734;2022-11-18T10:13:11;16.08;;;9.23;;
75191;SDS011;63771;52.580;9.734;2022-11-18T10:15:50;16.52;;;10.60;;
75191;SDS011;63771;52.580;9.734;2022-11-18T10:18:24;19.75;;;10.40;;
75191;SDS011;63771;52.580;9.734;2022-11-18T10:20:56;18.52;;;11.27;;
75191;SDS011;63771;52.580;9.734;2022-11-18T10:24:07;16.80;;;10.43;;
75191;SDS011;63771;52.580;9.734;2022-11-18T10:26:39;20.00;;;12.15;;
75191;SDS011;63771;52.580;9.734;2022-11-18T10:29:05;17.90;;;10.68;;
75191;SDS011;63771;52.580;9.734;2022-11-18T10:31:37;20.17;;;11.32;;
75191;SDS011;63771;52.580;9.734;2022-11-18T10:34:04;21.60;;;12.43;;
75191;SDS011;63771;52.580;9.734;2022-11-18T10:36:34;23.95;;;12.85;;
75191;SDS011;63771;52.580;9.734;2022-11-18T10:39:05;20.52;;;11.50;;
75191;SDS011;63771;52.580;9.734;2022-11-18T10:41:37;23.85;;;12.88;;
75191;SDS011;63771;52.580;9.734;2022-11-18T10:44:09;18.77;;;12.82;;
75191;SDS011;63771;52.580;9.734;2022-11-18T10:47:14;25.90;;;12.15;;
75191;SDS011;63771;52.580;9.734;2022-11-18T10:49:40;17.48;;;10.27;;
75191;SDS011;63771;52.580;9.734;2022-11-18T10:52:09;19.60;;;10.75;;
75191;SDS011;63771;52.580;9.734;2022-11-18T10:54:37;18.73;;;10.60;;
75191;SDS011;63771;52.580;9.734;2022-11-18T10:57:21;15.35;;;10.38;;
75191;SDS011;63771;52.580;9.734;2022-11-18T10:59:49;16.20;;;10.20;;
75191;SDS011;63771;52.580;9.734;2022-11-18T11:04:47;16.98;;;9.25;;
75191;SDS011;63771;52.580;9.734;2022-11-18T11:12:30;17.67;;;9.77;;
75191;SDS011;63771;52.580;9.734;2022-11-18T11:15:08;18.35;;;10.13;;
75191;SDS011;63771;52.580;9.734;2022-11-18T11:17:41;17.23;;;8.90;;
75191;SDS011;63771;52.580;9.734;2022-11-18T11:20:33;16.05;;;10.05;;
75191;SDS011;63771;52.580;9.734;2022-11-18T11:22:59;14.30;;;8.65;;
75191;SDS011;63771;52.580;9.734;2022-11-18T11:25:32;14.23;;;8.97;;
75191;SDS011;63771;52.580;9.734;2022-11-18T11:30:47;14.60;;;8.30;;
75191;SDS011;63771;52.580;9.734;2022-11-18T11:33:38;16.50;;;8.57;;
75191;SDS011;63771;52.580;9.734;2022-11-18T11:38:50;11.65;;;8.00;;
75191;SDS011;63771;52.580;9.734;2022-11-18T11:41:30;16.13;;;8.95;;
75191;SDS011;63771;52.580;9.734;2022-11-18T11:44:08;14.60;;;8.90;;
75191;SDS011;63771;52.580;9.734;2022-11-18T11:47:06;17.30;;;7.95;;
75191;SDS011;63771;52.580;9.734;2022-11-18T11:49:53;10.85;;;7.22;;
75191;SDS011;63771;52.580;9.734;2022-11-18T11:52:43;11.57;;;8.07;;
75191;SDS011;63771;52.580;9.734;2022-11-18T11:55:47;10.70;;;7.10;;
75191;SDS011;63771;52.580;9.734;2022-11-18T11:58:39;10.55;;;7.78;;
75191;SDS011;63771;52.580;9.734;2022-11-18T12:01:19;10.57;;;7.78;;
75191;SDS011;63771;52.580;9.734;2022-11-18T12:03:52;9.93;;;6.78;;
75191;SDS011;63771;52.580;9.734;2022-11-18T12:06:26;12.60;;;7.03;;
75191;SDS011;63771;52.580;9.734;2022-11-18T12:08:59;9.90;;;7.38;;
75191;SDS011;63771;52.580;9.734;2022-11-18T12:11:28;12.13;;;8.13;;
75191;SDS011;63771;52.580;9.734;2022-11-18T12:14:05;8.93;;;7.13;;
75191;SDS011;63771;52.580;9.734;2022-11-18T12:19:30;8.63;;;6.85;;
75191;SDS011;63771;52.580;9.734;2022-11-18T12:22:00;9.52;;;6.75;;
75191;SDS011;63771;52.580;9.734;2022-11-18T12:24:37;12.35;;;7.75;;
75191;SDS011;63771;52.580;9.734;2022-11-18T12:27:11;9.65;;;7.15;;
75191;SDS011;63771;52.580;9.734;2022-11-18T12:29:52;9.95;;;6.57;;
75191;SDS011;63771;52.580;9.734;2022-11-18T12:35:00;10.52;;;8.20;;
75191;SDS011;63771;52.580;9.734;2022-11-18T12:37:37;11.75;;;9.45;;
75191;SDS011;63771;52.580;9.734;2022-11-18T12:40:04;12.52;;;8.05;;
75191;SDS011;63771;52.580;9.734;2022-11-18T12:42:33;10.98;;;7.10;;
75191;SDS011;63771;52.580;9.734;2022-11-18T12:45:36;11.27;;;7.70;;
75191;SDS011;63771;52.580;9.734;2022-11-18T12:50:49;9.98;;;7.82;;
75191;SDS011;63771;52.580;9.734;2022-11-18T12:53:32;10.55;;;7.85;;
75191;SDS011;63771;52.580;9.734;2022-11-18T12:58:45;10.65;;;9.00;;
75191;SDS011;63771;52.580;9.734;2022-11-18T13:01:12;10.27;;;8.25;;
75191;SDS011;63771;52.580;9.734;2022-11-18T13:06:10;9.80;;;7.57;;
75191;SDS011;63771;52.580;9.734;2022-11-18T13:08:43;11.27;;;8.30;;
75191;SDS011;63771;52.580;9.734;2022-11-18T13:11:14;11.10;;;7.95;;
75191;SDS011;63771;52.580;9.734;2022-11-18T13:13:59;12.70;;;9.13;;
75191;SDS011;63771;52.580;9.734;2022-11-18T13:16:45;12.07;;;8.90;;
75191;SDS011;63771;52.580;9.734;2022-11-18T13:19:30;11.07;;;7.90;;
75191;SDS011;63771;52.580;9.734;2022-11-18T13:21:56;14.30;;;9.15;;
75191;SDS011;63771;52.580;9.734;2022-11-18T13:24:43;12.52;;;9.48;;
75191;SDS011;63771;52.580;9.734;2022-11-18T13:27:14;11.82;;;8.50;;
75191;SDS011;63771;52.580;9.734;2022-11-18T13:30:31;13.30;;;9.32;;
75191;SDS011;63771;52.580;9.734;2022-11-18T13:32:42;14.05;;;9.20;;
75191;SDS011;63771;52.580;9.734;2022-11-18T13:35:10;16.33;;;10.25;;
75191;SDS011;63771;52.580;9.734;2022-11-18T13:40:43;16.35;;;9.35;;
75191;SDS011;63771;52.580;9.734;2022-11-18T13:43:28;16.75;;;10.75;;
75191;SDS011;63771;52.580;9.734;2022-11-18T13:45:54;16.20;;;10.15;;
75191;SDS011;63771;52.580;9.734;2022-11-18T13:48:20;16.75;;;10.82;;
75191;SDS011;63771;52.580;9.734;2022-11-18T13:50:46;19.02;;;11.45;;
75191;SDS011;63771;52.580;9.734;2022-11-18T13:53:22;14.45;;;9.68;;
75191;SDS011;63771;52.580;9.734;2022-11-18T13:55:59;16.05;;;11.65;;
75191;SDS011;63771;52.580;9.734;2022-11-18T14:01:38;18.98;;;11.32;;
75191;SDS011;63771;52.580;9.734;2022-11-18T14:04:04;12.23;;;9.23;;
75191;SDS011;63771;52.580;9.734;2022-11-18T14:06:37;17.30;;;11.50;;
75191;SDS011;63771;52.580;9.734;2022-11-18T14:12:05;19.80;;;12.02;;
75191;SDS011;63771;52.580;9.734;2022-11-18T14:14:45;17.08;;;12.20;;
75191;SDS011;63771;52.580;9.734;2022-11-18T14:19:45;20.33;;;12.48;;
75191;SDS011;63771;52.580;9.734;2022-11-18T14:22:22;20.67;;;12.35;;
75191;SDS011;63771;52.580;9.734;2022-11-18T14:24:52;19.92;;;13.00;;
75191;SDS011;63771;52.580;9.734;2022-11-18T14:33:20;21.92;;;13.05;;
75191;SDS011;63771;52.580;9.734;2022-11-18T14:35:56;21.40;;;12.90;;
75191;SDS011;63771;52.580;9.734;2022-11-18T14:38:29;24.45;;;13.77;;
75191;SDS011;63771;52.580;9.734;2022-11-18T14:41:03;20.95;;;13.90;;
75191;SDS011;63771;52.580;9.734;2022-11-18T14:43:30;18.00;;;12.15;;
75191;SDS011;63771;52.580;9.734;2022-11-18T14:45:57;19.77;;;13.30;;
75191;SDS011;63771;52.580;9.734;2022-11-18T14:50:50;16.98;;;11.43;;
75191;SDS011;63771;52.580;9.734;2022-11-18T14:53:16;17.65;;;12.18;;
75191;SDS011;63771;52.580;9.734;2022-11-18T14:55:47;23.95;;;14.27;;
75191;SDS011;63771;52.580;9.734;2022-11-18T14:58:15;18.30;;;12.50;;
75191;SDS011;63771;52.580;9.734;2022-11-18T15:00:41;19.92;;;12.77;;
75191;SDS011;63771;52.580;9.734;2022-11-18T15:03:07;18.70;;;12.95;;
75191;SDS011;63771;52.580;9.734;2022-11-18T15:05:33;22.58;;;13.80;;
75191;SDS011;63771;52.580;9.734;2022-11-18T15:07:58;20.45;;;12.57;;
75191;SDS011;63771;52.580;9.734;2022-11-18T15:10:24;17.63;;;12.73;;
75191;SDS011;63771;52.580;9.734;2022-11-18T15:12:49;20.73;;;12.27;;
75191;SDS011;63771;52.580;9.734;2022-11-18T15:15:14;17.50;;;11.57;;
75191;SDS011;63771;52.580;9.734;2022-11-18T15:17:40;15.40;;;11.43;;
75191;SDS011;63771;52.580;9.734;2022-11-18T15:20:05;16.77;;;10.90;;
75191;SDS011;63771;52.580;9.734;2022-11-18T15:22:34;17.38;;;11.73;;
75191;SDS011;63771;52.580;9.734;2022-11-18T15:24:59;17.63;;;9.83;;
75191;SDS011;63771;52.580;9.734;2022-11-18T15:27:24;18.07;;;11.90;;
75191;SDS011;63771;52.580;9.734;2022-11-18T15:29:50;19.00;;;11.73;;
75191;SDS011;63771;52.580;9.734;2022-11-18T15:32:15;15.83;;;9.60;;
75191;SDS011;63771;52.580;9.734;2022-11-18T15:34:41;15.17;;;10.07;;
75191;SDS011;63771;52.580;9.734;2022-11-18T15:37:09;17.77;;;10.83;;
75191;SDS011;63771;52.580;9.734;2022-11-18T15:39:36;14.13;;;10.93;;
75191;SDS011;63771;52.580;9.734;2022-11-18T15:42:01;14.18;;;10.52;;
75191;SDS011;63771;52.580;9.734;2022-11-18T15:44:27;14.37;;;8.67;;
75191;SDS011;63771;52.580;9.734;2022-11-18T15:46:52;18.63;;;11.70;;
75191;SDS011;63771;52.580;9.734;2022-11-18T15:49:17;16.95;;;11.55;;
75191;SDS011;63771;52.580;9.734;2022-11-18T15:51:43;16.65;;;11.90;;
75191;SDS011;63771;52.580;9.734;2022-11-18T15:54:08;17.37;;;10.83;;
75191;SDS011;63771;52.580;9.734;2022-11-18T15:56:33;18.45;;;10.98;;
75191;SDS011;63771;52.580;9.734;2022-11-18T15:59:00;12.70;;;10.40;;
75191;SDS011;63771;52.580;9.734;2022-11-18T16:01:47;18.70;;;12.18;;
75191;SDS011;63771;52.580;9.734;2022-11-18T16:04:14;17.00;;;11.52;;
75191;SDS011;63771;52.580;9.734;2022-11-18T16:06:41;18.35;;;12.00;;
75191;SDS011;63771;52.580;9.734;2022-11-18T16:09:10;18.13;;;12.15;;
75191;SDS011;63771;52.580;9.734;2022-11-18T16:11:36;19.00;;;11.20;;